This is the latest recevied weather packets stored in our database for station/object CA3EVY-3. If no packets are shown the sender has not sent any weather packets the latest 10 day(s).
| Time | Temp. | Humidity | Pressure | Rain* | Wind** | Luminosity | Snow |
|---|---|---|---|---|---|---|---|
| 1777592703 | 17.78° C | 52% | 916.4 hPa | - | - | - | - |
| 1777591805 | 18.33° C | 51% | 916.2 hPa | - | - | - | - |
| 1777590904 | 18.33° C | 51% | 916.1 hPa | - | - | - | - |
| 1777590005 | 18.89° C | 50% | 915.8 hPa | - | - | - | - |
| 1777589103 | 18.89° C | 50% | 915.7 hPa | - | - | - | - |
| 1777588203 | 19.44° C | 49% | 915.5 hPa | - | - | - | - |
| 1777587305 | 20° C | 49% | 915.5 hPa | - | - | - | - |
| 1777586404 | 20.56° C | 47% | 915.4 hPa | - | - | - | - |
| 1777585504 | 21.11° C | 47% | 915.2 hPa | - | - | - | - |
| 1777584604 | 22.22° C | 44% | 915 hPa | - | - | - | - |
| 1777583704 | 22.78° C | 44% | 914.8 hPa | - | - | - | - |
| 1777582804 | 23.89° C | 43% | 914.5 hPa | - | - | - | - |
| 1777581903 | 23.89° C | 43% | 914.5 hPa | - | - | - | - |
| 1777581005 | 24.44° C | 42% | 914.3 hPa | - | - | - | - |
| 1777580104 | 25° C | 42% | 914.2 hPa | - | - | - | - |
| 1777579204 | 25° C | 42% | 914.3 hPa | - | - | - | - |
| 1777578304 | 25° C | 42% | 914.2 hPa | - | - | - | - |
| 1777577403 | 25° C | 42% | 914.2 hPa | - | - | - | - |
| 1777576504 | 25° C | 42% | 914.1 hPa | - | - | - | - |
| 1777575604 | 24.44° C | 41% | 914 hPa | - | - | - | - |
| 1777574703 | 24.44° C | 41% | 914.1 hPa | - | - | - | - |
| 1777573803 | 23.89° C | 41% | 914.1 hPa | - | - | - | - |
| 1777572918 | 23.89° C | 41% | 914.1 hPa | - | - | - | - |
| 1777572004 | 23.89° C | 41% | 914.2 hPa | - | - | - | - |
| 1777571104 | 23.33° C | 41% | 914.4 hPa | - | - | - | - |
* Rain since midnight (hover to see other rain measurements)
** Current wind speed in m/s (hover to see current wind gust speed)